createdAt,value
2022-10-18T00:00:44.559Z,102630.47
2022-10-18T00:03:11.056Z,102628.06
2022-10-18T00:05:37.599Z,102625.59
2022-10-18T00:08:04.154Z,102619.56
2022-10-18T00:10:30.793Z,102626.91
2022-10-18T00:12:57.284Z,102624.59
2022-10-18T00:15:23.752Z,102623.88
2022-10-18T00:17:50.302Z,102624.63
2022-10-18T00:20:16.861Z,102630.41
2022-10-18T00:22:43.468Z,102628.69
2022-10-18T00:25:10.305Z,102627.66
2022-10-18T00:27:37.334Z,102632.41
2022-10-18T00:30:05.173Z,102631.97
2022-10-18T00:32:31.934Z,102635.88
2022-10-18T00:34:59.215Z,102638.78
2022-10-18T00:37:25.886Z,102638.03
2022-10-18T00:42:27.450Z,102632.28
2022-10-18T00:45:04.751Z,102633.72
2022-10-18T00:47:32.090Z,102635.31
2022-10-18T00:50:01.601Z,102636.75
2022-10-18T00:52:34.394Z,102646.38
2022-10-18T00:55:01.301Z,102648.84
2022-10-18T00:57:27.964Z,102651.00
2022-10-18T00:59:54.609Z,102646.69
2022-10-18T01:02:21.718Z,102647.81
2022-10-18T01:04:48.866Z,102644.66
2022-10-18T01:07:34.113Z,102645.22
2022-10-18T01:10:03.932Z,102651.91
2022-10-18T01:12:47.818Z,102656.38
2022-10-18T01:15:26.397Z,102659.41
2022-10-18T01:18:04.816Z,102658.81
2022-10-18T01:21:08.776Z,102659.69
2022-10-18T01:23:38.140Z,102652.66
2022-10-18T01:26:38.732Z,102649.03
2022-10-18T01:29:38.344Z,102646.28
2022-10-18T01:32:08.524Z,102642.13
2022-10-18T01:34:36.556Z,102654.31
2022-10-18T01:37:05.258Z,102659.19
2022-10-18T01:39:35.169Z,102649.72
2022-10-18T01:42:03.396Z,102653.72
2022-10-18T01:44:31.908Z,102652.28
2022-10-18T01:46:59.060Z,102656.53
2022-10-18T01:49:26.827Z,102657.81
2022-10-18T01:51:53.663Z,102656.97
2022-10-18T01:54:29.504Z,102659.84
2022-10-18T01:57:03.445Z,102663.00
2022-10-18T02:00:10.750Z,102661.16
2022-10-18T02:02:40.502Z,102656.97
2022-10-18T02:05:13.096Z,102656.50
2022-10-18T02:07:48.975Z,102651.34
2022-10-18T02:10:30.065Z,102663.66
2022-10-18T02:12:57.306Z,102665.06
2022-10-18T02:15:28.709Z,102667.06
2022-10-18T02:17:56.022Z,102664.75
2022-10-18T02:20:24.998Z,102671.19
2022-10-18T02:22:54.454Z,102679.66
2022-10-18T02:25:25.417Z,102662.44
2022-10-18T02:27:52.043Z,102671.13
2022-10-18T02:30:19.486Z,102666.09
2022-10-18T02:32:54.322Z,102669.22
2022-10-18T02:35:26.112Z,102675.81
2022-10-18T02:37:53.219Z,102671.47
2022-10-18T02:40:20.030Z,102679.91
2022-10-18T02:42:52.267Z,102673.63
2022-10-18T02:45:18.838Z,102663.97
2022-10-18T02:47:45.388Z,102665.97
2022-10-18T02:50:12.072Z,102666.84
2022-10-18T02:52:38.647Z,102664.25
2022-10-18T02:55:05.965Z,102665.09
2022-10-18T02:57:32.857Z,102667.34
2022-10-18T02:59:59.752Z,102674.81
2022-10-18T03:02:26.296Z,102678.53
2022-10-18T03:04:52.866Z,102671.22
2022-10-18T03:07:19.330Z,102676.81
2022-10-18T03:09:45.795Z,102671.75
2022-10-18T03:12:12.237Z,102681.03
2022-10-18T03:14:38.792Z,102673.25
2022-10-18T03:17:05.406Z,102668.34
2022-10-18T03:19:31.931Z,102665.03
2022-10-18T03:21:58.406Z,102677.03
2022-10-18T03:24:24.888Z,102669.75
2022-10-18T03:26:51.454Z,102673.72
2022-10-18T03:29:17.977Z,102683.09
2022-10-18T03:31:44.504Z,102687.72
2022-10-18T03:34:11.000Z,102672.09
2022-10-18T03:36:38.776Z,102674.72
2022-10-18T03:39:05.278Z,102672.00
2022-10-18T03:41:31.732Z,102671.00
2022-10-18T03:43:58.203Z,102669.16
2022-10-18T03:46:24.679Z,102665.28
2022-10-18T03:48:51.160Z,102672.34
2022-10-18T03:51:17.658Z,102676.66
2022-10-18T03:53:44.143Z,102681.00
2022-10-18T03:56:10.729Z,102682.72
2022-10-18T03:58:37.273Z,102681.97
2022-10-18T04:01:03.813Z,102682.09
2022-10-18T04:03:30.335Z,102684.97
2022-10-18T04:05:57.152Z,102675.78
2022-10-18T04:08:23.659Z,102663.91
2022-10-18T04:10:50.211Z,102661.31
2022-10-18T04:13:16.684Z,102666.03
2022-10-18T04:15:43.435Z,102667.88
2022-10-18T04:18:10.072Z,102673.56
2022-10-18T04:20:36.602Z,102663.91
2022-10-18T04:23:03.082Z,102672.22
2022-10-18T04:25:29.705Z,102674.22
2022-10-18T04:27:56.314Z,102674.34
2022-10-18T04:30:22.819Z,102679.94
2022-10-18T04:32:49.318Z,102682.75
2022-10-18T04:35:15.832Z,102693.94
2022-10-18T04:37:42.450Z,102693.19
2022-10-18T04:40:09.524Z,102708.94
2022-10-18T04:42:35.980Z,102708.44
2022-10-18T04:45:02.700Z,102695.22
2022-10-18T04:47:29.368Z,102695.47
2022-10-18T04:49:56.010Z,102692.13
2022-10-18T04:52:22.468Z,102691.53
2022-10-18T04:54:48.926Z,102690.94
2022-10-18T04:57:15.466Z,102694.75
2022-10-18T04:59:41.956Z,102700.56
2022-10-18T05:02:08.601Z,102708.13
2022-10-18T05:04:35.211Z,102710.13
2022-10-18T05:07:02.799Z,102711.84
2022-10-18T05:09:29.298Z,102709.13
2022-10-18T05:11:55.757Z,102709.50
2022-10-18T05:14:22.280Z,102716.81
2022-10-18T05:16:48.823Z,102722.50
2022-10-18T05:19:15.367Z,102720.78
2022-10-18T05:21:41.992Z,102718.31
2022-10-18T05:24:11.558Z,102719.44
2022-10-18T05:26:38.070Z,102720.66
2022-10-18T05:29:04.738Z,102730.03
2022-10-18T05:31:31.359Z,102733.03
2022-10-18T05:33:57.873Z,102732.28
2022-10-18T05:36:26.085Z,102724.59
2022-10-18T05:38:53.607Z,102716.72
2022-10-18T05:41:20.214Z,102724.97
2022-10-18T05:43:46.785Z,102722.16
2022-10-18T05:46:15.485Z,102717.81
2022-10-18T05:48:44.307Z,102723.38
2022-10-18T05:51:11.561Z,102729.44
2022-10-18T05:53:38.433Z,102733.28
2022-10-18T05:56:06.212Z,102727.09
2022-10-18T05:58:33.556Z,102737.97
2022-10-18T06:01:01.355Z,102740.56
2022-10-18T06:03:28.505Z,102750.59
2022-10-18T06:06:00.282Z,102754.28
2022-10-18T06:08:26.865Z,102754.78
2022-10-18T06:10:53.495Z,102758.22
2022-10-18T06:13:19.951Z,102761.84
2022-10-18T06:15:46.413Z,102757.38
2022-10-18T06:18:12.997Z,102759.50
2022-10-18T06:20:39.498Z,102771.34
2022-10-18T06:23:06.581Z,102765.91
2022-10-18T06:25:33.039Z,102758.59
2022-10-18T06:27:59.518Z,102763.06
2022-10-18T06:30:26.132Z,102778.16
2022-10-18T06:32:52.762Z,102784.34
2022-10-18T06:35:19.193Z,102783.38
2022-10-18T06:37:45.679Z,102783.22
2022-10-18T06:40:12.393Z,102782.25
2022-10-18T06:42:39.174Z,102788.31
2022-10-18T06:45:06.490Z,102791.41
2022-10-18T06:47:33.007Z,102794.50
2022-10-18T06:49:59.889Z,102793.91
2022-10-18T06:52:26.545Z,102798.59
2022-10-18T06:54:53.811Z,102801.47
2022-10-18T06:57:21.292Z,102800.84
2022-10-18T06:59:47.785Z,102811.72
2022-10-18T07:02:16.595Z,102818.50
2022-10-18T07:04:43.706Z,102812.91
2022-10-18T07:07:10.163Z,102811.06
2022-10-18T07:09:36.682Z,102815.63
2022-10-18T07:12:03.367Z,102821.75
2022-10-18T07:14:29.835Z,102826.19
2022-10-18T07:16:59.500Z,102825.75
2022-10-18T07:19:26.281Z,102827.81
2022-10-18T07:21:52.769Z,102826.03
2022-10-18T07:24:19.264Z,102825.44
2022-10-18T07:26:45.762Z,102833.03
2022-10-18T07:29:13.176Z,102841.31
2022-10-18T07:31:40.859Z,102849.84
2022-10-18T07:34:09.139Z,102863.28
2022-10-18T07:36:35.675Z,102865.72
2022-10-18T07:39:02.309Z,102863.22
2022-10-18T07:41:29.234Z,102862.66
2022-10-18T07:43:55.858Z,102865.06
2022-10-18T07:46:22.598Z,102865.06
2022-10-18T07:48:50.044Z,102874.22
2022-10-18T07:51:17.864Z,102876.47
2022-10-18T07:53:44.489Z,102876.41
2022-10-18T07:56:16.617Z,102879.09
2022-10-18T07:58:45.203Z,102888.19
2022-10-18T08:01:12.511Z,102864.59
2022-10-18T08:03:39.824Z,102840.75
2022-10-18T08:06:09.158Z,102827.16
2022-10-18T08:08:37.759Z,102817.50
2022-10-18T08:11:10.544Z,102810.66
2022-10-18T08:13:37.232Z,102808.38
2022-10-18T08:16:06.149Z,102814.25
2022-10-18T08:18:33.086Z,102824.13
2022-10-18T08:21:00.985Z,102809.75
2022-10-18T08:23:27.544Z,102806.97
2022-10-18T08:25:54.114Z,102822.50
2022-10-18T08:28:20.631Z,102825.91
2022-10-18T08:30:47.107Z,102834.28
2022-10-18T08:33:13.763Z,102823.72
2022-10-18T08:35:40.304Z,102827.56
2022-10-18T08:38:16.388Z,102820.94
2022-10-18T08:40:44.781Z,102820.41
2022-10-18T08:49:12.249Z,102807.34
2022-10-18T08:51:45.686Z,102810.97
2022-10-18T08:54:27.563Z,102816.31
2022-10-18T08:57:00.391Z,102821.22
2022-10-18T08:59:31.091Z,102817.19
2022-10-18T09:02:22.402Z,102820.97
2022-10-18T09:05:10.291Z,102820.81
2022-10-18T09:14:24.209Z,102819.94
2022-10-18T09:16:53.561Z,102825.63
2022-10-18T09:19:30.512Z,102827.09
2022-10-18T09:22:09.718Z,102825.97
2022-10-18T09:24:41.239Z,102830.13
2022-10-18T09:30:40.183Z,102836.31
2022-10-18T09:33:31.210Z,102837.28
2022-10-18T09:36:00.383Z,102843.66
2022-10-18T09:38:32.951Z,102852.38
2022-10-18T09:41:07.478Z,102844.34
2022-10-18T09:43:50.834Z,102847.63
2022-10-18T09:46:19.290Z,102846.66
2022-10-18T09:48:50.446Z,102855.84
2022-10-18T09:55:18.391Z,102855.69
2022-10-18T09:57:51.014Z,102865.53
2022-10-18T10:00:23.010Z,102862.06
2022-10-18T10:02:49.562Z,102858.00
2022-10-18T10:05:16.290Z,102868.06
2022-10-18T10:07:45.896Z,102874.06
2022-10-18T10:10:24.033Z,102876.19
2022-10-18T10:13:15.789Z,102880.31
2022-10-18T10:16:02.740Z,102884.34
2022-10-18T10:18:37.124Z,102871.75
2022-10-18T10:21:06.135Z,102874.00
2022-10-18T10:23:37.024Z,102869.84
2022-10-18T10:26:06.211Z,102871.97
2022-10-18T10:28:37.482Z,102874.47
2022-10-18T10:31:18.078Z,102876.53
2022-10-18T10:33:47.492Z,102882.66
2022-10-18T10:36:20.251Z,102881.34
2022-10-18T10:38:46.979Z,102878.59
2022-10-18T10:41:21.605Z,102887.50
2022-10-18T10:43:48.380Z,102890.72
2022-10-18T10:46:19.413Z,102894.22
2022-10-18T10:49:08.443Z,102887.75
2022-10-18T10:51:43.673Z,102897.13
2022-10-18T10:54:16.127Z,102890.41
2022-10-18T10:56:59.166Z,102885.75
2022-10-18T10:59:27.990Z,102897.94
2022-10-18T11:02:20.626Z,102893.97
2022-10-18T11:04:52.143Z,102903.91
2022-10-18T11:07:29.084Z,102901.84
2022-10-18T11:10:04.145Z,102889.59
2022-10-18T11:12:34.741Z,102889.59
2022-10-18T11:15:39.146Z,102894.19
2022-10-18T11:18:27.687Z,102902.63
2022-10-18T11:20:58.731Z,102900.56
2022-10-18T11:23:29.403Z,102905.63
2022-10-18T11:26:12.561Z,102895.72
2022-10-18T11:28:42.041Z,102880.34
2022-10-18T11:31:33.437Z,102891.97
2022-10-18T11:34:13.971Z,102885.94
2022-10-18T11:37:22.931Z,102886.84
2022-10-18T11:40:15.491Z,102884.66
2022-10-18T11:42:50.219Z,102891.13
2022-10-18T11:45:31.952Z,102884.75
2022-10-18T11:48:13.514Z,102884.84
2022-10-18T11:53:52.120Z,102888.91
2022-10-18T11:56:39.746Z,102885.75
2022-10-18T11:59:27.468Z,102887.25
2022-10-18T12:02:31.682Z,102881.25
2022-10-18T12:07:55.636Z,102888.63
2022-10-18T12:10:31.733Z,102888.44
2022-10-18T12:13:16.979Z,102887.00
2022-10-18T12:15:44.017Z,102879.38
2022-10-18T12:18:15.405Z,102880.00
2022-10-18T12:20:43.467Z,102887.31
2022-10-18T12:23:17.264Z,102864.41
2022-10-18T12:25:47.894Z,102871.50
2022-10-18T12:28:51.752Z,102877.13
2022-10-18T12:31:33.971Z,102875.03
2022-10-18T12:34:04.790Z,102869.34
2022-10-18T12:36:46.460Z,102861.13
2022-10-18T12:39:43.698Z,102867.59
2022-10-18T12:42:28.629Z,102868.53
2022-10-18T12:45:02.574Z,102856.59
2022-10-18T12:47:30.108Z,102855.47
2022-10-18T12:50:22.928Z,102863.06
2022-10-18T12:53:02.644Z,102863.31
2022-10-18T12:55:32.641Z,102870.59
2022-10-18T12:57:59.228Z,102859.78
2022-10-18T13:00:31.979Z,102860.84
2022-10-18T13:03:13.489Z,102863.16
2022-10-18T13:05:54.842Z,102862.09
2022-10-18T13:08:28.097Z,102858.91
2022-10-18T13:11:12.542Z,102854.63
2022-10-18T13:13:48.440Z,102857.06
2022-10-18T13:16:20.834Z,102855.84
2022-10-18T13:18:50.035Z,102859.22
2022-10-18T13:21:44.476Z,102851.25
2022-10-18T13:24:24.296Z,102854.56
2022-10-18T13:30:01.300Z,102852.03
2022-10-18T13:32:46.314Z,102851.63
2022-10-18T13:35:43.771Z,102846.06
2022-10-18T13:41:25.731Z,102847.78
2022-10-18T13:43:52.674Z,102850.31
2022-10-18T13:46:22.037Z,102842.88
2022-10-18T13:52:26.987Z,102840.00
2022-10-18T13:55:18.219Z,102847.78
2022-10-18T13:57:47.664Z,102852.50
2022-10-18T14:00:23.332Z,102840.47
2022-10-18T14:03:02.427Z,102832.16
2022-10-18T14:05:50.781Z,102835.06
2022-10-18T14:11:05.541Z,102834.63
2022-10-18T14:13:48.489Z,102835.53
2022-10-18T14:16:27.937Z,102843.00
2022-10-18T14:19:01.189Z,102839.72
2022-10-18T14:21:32.427Z,102835.44
2022-10-18T14:23:58.924Z,102845.31
2022-10-18T14:26:28.700Z,102843.00
2022-10-18T14:29:06.349Z,102843.97
2022-10-18T14:31:33.266Z,102839.69
2022-10-18T14:33:59.988Z,102837.34
2022-10-18T14:36:29.844Z,102848.94
2022-10-18T14:39:06.498Z,102843.31
2022-10-18T14:41:38.548Z,102834.38
2022-10-18T14:44:14.240Z,102838.63
2022-10-18T14:46:46.728Z,102847.63
2022-10-18T14:49:14.200Z,102831.09
2022-10-18T14:51:43.077Z,102826.59
2022-10-18T14:54:23.075Z,102840.28
2022-10-18T14:56:51.609Z,102841.25
2022-10-18T15:02:25.958Z,102853.88
2022-10-18T15:05:07.406Z,102850.94
2022-10-18T15:07:34.264Z,102851.72
2022-10-18T15:10:03.963Z,102849.69
2022-10-18T15:12:36.945Z,102858.91
2022-10-18T15:15:20.941Z,102850.13
2022-10-18T15:17:48.253Z,102848.00
2022-10-18T15:20:22.954Z,102851.84
2022-10-18T15:22:49.549Z,102848.91
2022-10-18T15:25:32.111Z,102843.78
2022-10-18T15:27:59.540Z,102837.25
2022-10-18T15:30:36.874Z,102854.78
2022-10-18T15:33:09.584Z,102847.06
2022-10-18T15:35:37.614Z,102857.81
2022-10-18T15:38:20.577Z,102854.59
2022-10-18T15:40:48.078Z,102855.84
2022-10-18T15:43:23.672Z,102856.66
2022-10-18T15:45:52.873Z,102849.91
2022-10-18T15:48:21.264Z,102855.88
2022-10-18T15:50:53.770Z,102846.97
2022-10-18T15:53:20.214Z,102852.53
2022-10-18T15:56:00.053Z,102862.03
2022-10-18T15:58:46.183Z,102860.16
2022-10-18T16:01:34.995Z,102863.22
2022-10-18T16:04:05.391Z,102860.59
2022-10-18T16:06:35.230Z,102862.34
2022-10-18T16:09:01.850Z,102857.31
2022-10-18T16:11:29.651Z,102858.13
2022-10-18T16:13:58.029Z,102859.81
2022-10-18T16:16:28.710Z,102862.88
2022-10-18T16:18:55.698Z,102860.44
2022-10-18T16:21:30.012Z,102866.06
2022-10-18T16:23:56.848Z,102866.03
2022-10-18T16:26:23.915Z,102863.06
2022-10-18T16:28:51.374Z,102854.44
2022-10-18T16:31:20.877Z,102862.47
2022-10-18T16:33:50.245Z,102866.13
2022-10-18T16:36:19.335Z,102866.06
2022-10-18T16:38:46.819Z,102868.13
2022-10-18T16:41:13.427Z,102879.22
2022-10-18T16:43:40.005Z,102876.50
2022-10-18T16:46:07.625Z,102873.28
2022-10-18T16:48:34.105Z,102884.88
2022-10-18T16:51:01.118Z,102880.97
2022-10-18T16:53:28.086Z,102875.09
2022-10-18T16:56:05.307Z,102880.16
2022-10-18T16:58:32.874Z,102893.97
2022-10-18T17:01:01.014Z,102896.31
2022-10-18T17:03:29.563Z,102900.53
2022-10-18T17:05:56.781Z,102907.66
2022-10-18T17:08:25.745Z,102902.38
2022-10-18T17:10:55.269Z,102907.19
2022-10-18T17:13:22.300Z,102911.41
2022-10-18T17:15:49.404Z,102906.69
2022-10-18T17:18:21.932Z,102903.81
2022-10-18T17:20:49.658Z,102917.41
2022-10-18T17:23:16.348Z,102924.94
2022-10-18T17:25:58.961Z,102933.75
2022-10-18T17:28:33.742Z,102936.38
2022-10-18T17:31:00.343Z,102935.81
2022-10-18T17:33:26.876Z,102934.94
2022-10-18T17:35:53.466Z,102937.97
2022-10-18T17:38:19.918Z,102946.31
2022-10-18T17:40:46.497Z,102943.56
2022-10-18T17:43:13.959Z,102945.13
2022-10-18T17:45:51.139Z,102946.84
2022-10-18T17:48:17.681Z,102940.66
2022-10-18T17:50:44.486Z,102945.56
2022-10-18T17:53:12.912Z,102947.09
2022-10-18T17:55:39.711Z,102945.38
2022-10-18T17:58:06.383Z,102953.13
2022-10-18T18:00:32.860Z,102952.38
2022-10-18T18:03:00.231Z,102961.91
2022-10-18T18:05:31.136Z,102962.72
2022-10-18T18:08:02.762Z,102964.69
2022-10-18T18:10:33.004Z,102968.38
2022-10-18T18:12:59.594Z,102965.59
2022-10-18T18:15:26.133Z,102971.34
2022-10-18T18:17:57.187Z,102963.69
2022-10-18T18:20:24.595Z,102956.78
2022-10-18T18:22:51.810Z,102962.63
2022-10-18T18:25:18.475Z,102972.38
2022-10-18T18:27:45.092Z,102958.59
2022-10-18T18:30:12.150Z,102963.47
2022-10-18T18:32:38.721Z,102966.34
2022-10-18T18:35:05.618Z,102974.31
2022-10-18T18:37:32.143Z,102981.47
2022-10-18T18:39:58.632Z,102975.38
2022-10-18T18:42:25.279Z,102982.72
2022-10-18T18:44:51.813Z,102997.22
2022-10-18T18:47:21.555Z,102990.56
2022-10-18T18:49:48.465Z,102992.22
2022-10-18T18:52:14.945Z,102988.03
2022-10-18T18:54:41.409Z,102990.28
2022-10-18T18:57:07.930Z,102985.06
2022-10-18T18:59:34.448Z,102995.25
2022-10-18T19:02:01.182Z,102991.66
2022-10-18T19:04:29.037Z,102993.50
2022-10-18T19:06:55.554Z,102999.84
2022-10-18T19:09:22.871Z,102999.09
2022-10-18T19:11:52.463Z,102992.66
2022-10-18T19:14:19.682Z,102998.50
2022-10-18T19:16:51.013Z,102990.72
2022-10-18T19:19:22.656Z,103005.75
2022-10-18T19:21:54.022Z,102999.41
2022-10-18T19:24:21.862Z,103002.66
2022-10-18T19:26:54.101Z,103002.16
2022-10-18T19:29:26.120Z,103007.84
2022-10-18T19:31:54.388Z,103002.69
2022-10-18T19:34:22.304Z,103010.97
2022-10-18T19:36:49.747Z,102998.69
2022-10-18T19:39:24.587Z,103006.13
2022-10-18T19:41:55.141Z,102997.50
2022-10-18T19:44:22.675Z,102996.97
2022-10-18T19:46:49.508Z,103001.97
2022-10-18T19:49:16.882Z,103002.22
2022-10-18T19:51:44.074Z,102993.28
2022-10-18T19:54:14.503Z,103000.84
2022-10-18T19:56:41.750Z,102994.50
2022-10-18T19:59:08.714Z,102987.34
2022-10-18T20:01:35.343Z,102995.03
2022-10-18T20:04:03.788Z,102994.50
2022-10-18T20:06:31.712Z,102987.00
2022-10-18T20:08:58.529Z,102998.13
2022-10-18T20:11:27.607Z,102994.50
2022-10-18T20:13:54.423Z,102991.94
2022-10-18T20:16:28.594Z,102990.06
2022-10-18T20:19:00.303Z,102991.06
2022-10-18T20:21:28.540Z,102977.44
2022-10-18T20:23:55.388Z,102980.41
2022-10-18T20:26:21.893Z,102984.88
2022-10-18T20:28:56.213Z,102976.69
2022-10-18T20:31:30.826Z,102971.50
2022-10-18T20:33:59.814Z,102973.31
2022-10-18T20:36:27.621Z,102970.59
2022-10-18T20:38:54.946Z,102984.56
2022-10-18T20:41:36.540Z,102985.69
2022-10-18T20:44:05.267Z,102990.38
2022-10-18T20:46:33.601Z,102983.09
2022-10-18T20:49:00.593Z,102991.38
2022-10-18T20:51:27.087Z,102984.31
2022-10-18T20:53:53.850Z,102985.31
2022-10-18T20:56:22.238Z,102984.31
2022-10-18T20:58:54.593Z,102977.13
2022-10-18T21:01:27.284Z,102977.50
2022-10-18T21:03:55.571Z,102976.13
2022-10-18T21:06:32.195Z,102984.78
2022-10-18T21:09:03.811Z,102989.75
2022-10-18T21:11:31.716Z,102987.25
2022-10-18T21:14:02.526Z,102991.84
2022-10-18T21:16:33.708Z,102995.78
2022-10-18T21:19:08.702Z,102992.44
2022-10-18T21:21:35.588Z,102993.78
2022-10-18T21:24:05.466Z,102990.19
2022-10-18T21:26:34.642Z,102994.00
2022-10-18T21:29:01.378Z,102998.72
2022-10-18T21:31:30.392Z,102990.91
2022-10-18T21:33:59.233Z,102989.28
2022-10-18T21:36:27.433Z,102996.69
2022-10-18T21:38:53.921Z,102985.06
2022-10-18T21:41:21.397Z,102981.59
2022-10-18T21:43:50.571Z,102983.56
2022-10-18T21:46:18.626Z,102986.53
2022-10-18T21:48:47.207Z,102979.72
2022-10-18T21:51:15.662Z,102982.78
2022-10-18T21:53:43.606Z,102987.56
2022-10-18T21:56:15.313Z,102985.81
2022-10-18T21:58:42.474Z,102990.78
2022-10-18T22:01:14.548Z,102995.47
2022-10-18T22:03:41.528Z,102996.31
2022-10-18T22:06:14.212Z,103001.75
2022-10-18T22:08:44.889Z,102991.13
2022-10-18T22:11:12.633Z,102992.09
2022-10-18T22:13:39.945Z,102992.19
2022-10-18T22:16:07.345Z,102983.31
2022-10-18T22:18:34.615Z,102989.97
2022-10-18T22:21:03.913Z,102990.09
2022-10-18T22:23:35.297Z,102992.06
2022-10-18T22:26:07.844Z,102998.34
2022-10-18T22:28:35.268Z,102998.56
2022-10-18T22:31:02.102Z,102999.59
2022-10-18T22:33:28.635Z,102991.63
2022-10-18T22:35:55.429Z,102994.47
2022-10-18T22:38:22.082Z,102994.59
2022-10-18T22:40:48.615Z,102998.50
2022-10-18T22:43:15.123Z,102996.53
2022-10-18T22:45:41.867Z,102994.03
2022-10-18T22:48:08.397Z,102997.09
2022-10-18T22:50:34.963Z,102998.09
2022-10-18T22:53:01.423Z,102994.84
2022-10-18T22:55:27.892Z,102994.09
2022-10-18T22:57:55.610Z,102997.91
2022-10-18T23:00:22.149Z,102999.75
2022-10-18T23:02:49.779Z,102993.56
2022-10-18T23:05:16.492Z,102999.13
2022-10-18T23:07:47.693Z,102994.44
2022-10-18T23:10:14.267Z,103000.09
2022-10-18T23:12:40.743Z,102995.63
2022-10-18T23:15:07.814Z,102989.44
2022-10-18T23:17:34.571Z,102992.63
2022-10-18T23:20:01.254Z,102997.41
2022-10-18T23:22:27.718Z,102993.94
2022-10-18T23:24:54.241Z,102998.75
2022-10-18T23:27:20.727Z,102992.53
2022-10-18T23:29:47.241Z,102985.47
2022-10-18T23:32:13.717Z,102982.00
2022-10-18T23:34:40.222Z,102986.69
2022-10-18T23:37:06.725Z,102986.03
2022-10-18T23:39:33.188Z,102979.84
2022-10-18T23:41:59.644Z,102974.63
2022-10-18T23:44:26.138Z,102988.41
2022-10-18T23:46:52.602Z,102981.25
2022-10-18T23:49:19.097Z,102986.94
2022-10-18T23:51:45.578Z,102986.13
2022-10-18T23:54:12.041Z,102990.91
2022-10-18T23:56:38.501Z,102989.50
2022-10-18T23:59:05.006Z,102988.97
